sensor_id;sensor_type;location;lat;lon;timestamp;P1;durP1;ratioP1;P2;durP2;ratioP2
75937;SDS011;64615;32.062;34.834;2023-06-22T00:00:57;13.05;;;6.38;;
75937;SDS011;64615;32.062;34.834;2023-06-22T00:03:23;10.77;;;6.45;;
75937;SDS011;64615;32.062;34.834;2023-06-22T00:05:50;12.27;;;6.35;;
75937;SDS011;64615;32.062;34.834;2023-06-22T00:08:16;11.00;;;6.20;;
75937;SDS011;64615;32.062;34.834;2023-06-22T00:10:43;10.35;;;6.43;;
75937;SDS011;64615;32.062;34.834;2023-06-22T00:13:09;11.95;;;6.55;;
75937;SDS011;64615;32.062;34.834;2023-06-22T00:15:36;10.10;;;6.30;;
75937;SDS011;64615;32.062;34.834;2023-06-22T00:18:04;13.30;;;6.75;;
75937;SDS011;64615;32.062;34.834;2023-06-22T00:20:31;12.07;;;7.00;;
75937;SDS011;64615;32.062;34.834;2023-06-22T00:22:57;12.07;;;6.72;;
75937;SDS011;64615;32.062;34.834;2023-06-22T00:25:24;11.02;;;6.68;;
75937;SDS011;64615;32.062;34.834;2023-06-22T00:27:50;11.93;;;7.05;;
75937;SDS011;64615;32.062;34.834;2023-06-22T00:30:16;15.75;;;7.80;;
75937;SDS011;64615;32.062;34.834;2023-06-22T00:32:43;13.02;;;6.78;;
75937;SDS011;64615;32.062;34.834;2023-06-22T00:35:09;13.18;;;7.32;;
75937;SDS011;64615;32.062;34.834;2023-06-22T00:37:36;13.80;;;6.95;;
75937;SDS011;64615;32.062;34.834;2023-06-22T00:40:03;12.25;;;7.50;;
75937;SDS011;64615;32.062;34.834;2023-06-22T00:42:30;10.02;;;7.03;;
75937;SDS011;64615;32.062;34.834;2023-06-22T00:44:56;12.80;;;7.35;;
75937;SDS011;64615;32.062;34.834;2023-06-22T00:47:22;12.75;;;7.25;;
75937;SDS011;64615;32.062;34.834;2023-06-22T00:49:48;13.63;;;6.95;;
75937;SDS011;64615;32.062;34.834;2023-06-22T00:52:17;11.57;;;7.35;;
75937;SDS011;64615;32.062;34.834;2023-06-22T00:54:49;15.68;;;7.68;;
75937;SDS011;64615;32.062;34.834;2023-06-22T00:57:15;16.60;;;7.78;;
75937;SDS011;64615;32.062;34.834;2023-06-22T00:59:43;15.77;;;8.25;;
75937;SDS011;64615;32.062;34.834;2023-06-22T01:02:09;15.02;;;7.28;;
75937;SDS011;64615;32.062;34.834;2023-06-22T01:04:36;12.23;;;7.72;;
75937;SDS011;64615;32.062;34.834;2023-06-22T01:07:10;17.02;;;7.97;;
75937;SDS011;64615;32.062;34.834;2023-06-22T01:09:42;13.95;;;8.45;;
75937;SDS011;64615;32.062;34.834;2023-06-22T01:12:16;13.35;;;7.63;;
75937;SDS011;64615;32.062;34.834;2023-06-22T01:14:47;11.65;;;7.63;;
75937;SDS011;64615;32.062;34.834;2023-06-22T01:17:20;14.23;;;7.70;;
75937;SDS011;64615;32.062;34.834;2023-06-22T01:19:50;13.85;;;7.97;;
75937;SDS011;64615;32.062;34.834;2023-06-22T01:22:23;15.02;;;8.20;;
75937;SDS011;64615;32.062;34.834;2023-06-22T01:27:32;17.20;;;9.82;;
75937;SDS011;64615;32.062;34.834;2023-06-22T01:30:07;16.50;;;8.70;;
75937;SDS011;64615;32.062;34.834;2023-06-22T01:32:35;15.98;;;9.52;;
75937;SDS011;64615;32.062;34.834;2023-06-22T01:35:03;15.82;;;9.00;;
75937;SDS011;64615;32.062;34.834;2023-06-22T01:37:31;17.17;;;9.73;;
75937;SDS011;64615;32.062;34.834;2023-06-22T01:42:25;16.75;;;9.57;;
75937;SDS011;64615;32.062;34.834;2023-06-22T01:44:52;16.00;;;9.88;;
75937;SDS011;64615;32.062;34.834;2023-06-22T01:47:20;16.08;;;9.63;;
75937;SDS011;64615;32.062;34.834;2023-06-22T01:52:12;14.00;;;8.50;;
75937;SDS011;64615;32.062;34.834;2023-06-22T01:54:39;13.27;;;9.20;;
75937;SDS011;64615;32.062;34.834;2023-06-22T01:57:05;12.63;;;8.00;;
75937;SDS011;64615;32.062;34.834;2023-06-22T02:00:18;13.73;;;8.80;;
75937;SDS011;64615;32.062;34.834;2023-06-22T02:02:20;11.25;;;7.63;;
75937;SDS011;64615;32.062;34.834;2023-06-22T02:04:54;13.35;;;8.00;;
75937;SDS011;64615;32.062;34.834;2023-06-22T02:07:24;11.48;;;7.80;;
75937;SDS011;64615;32.062;34.834;2023-06-22T02:09:57;11.30;;;7.57;;
75937;SDS011;64615;32.062;34.834;2023-06-22T02:12:24;10.93;;;7.82;;
75937;SDS011;64615;32.062;34.834;2023-06-22T02:14:52;11.88;;;7.18;;
75937;SDS011;64615;32.062;34.834;2023-06-22T02:17:18;10.65;;;7.47;;
75937;SDS011;64615;32.062;34.834;2023-06-22T02:19:44;9.13;;;6.88;;
75937;SDS011;64615;32.062;34.834;2023-06-22T02:22:10;13.77;;;8.27;;
75937;SDS011;64615;32.062;34.834;2023-06-22T02:24:37;11.27;;;7.78;;
75937;SDS011;64615;32.062;34.834;2023-06-22T02:27:03;10.95;;;7.65;;
75937;SDS011;64615;32.062;34.834;2023-06-22T02:29:31;12.40;;;7.68;;
75937;SDS011;64615;32.062;34.834;2023-06-22T02:31:56;9.68;;;7.35;;
75937;SDS011;64615;32.062;34.834;2023-06-22T02:34:22;9.95;;;7.03;;
75937;SDS011;64615;32.062;34.834;2023-06-22T02:36:48;10.98;;;6.97;;
75937;SDS011;64615;32.062;34.834;2023-06-22T02:39:21;9.95;;;6.85;;
75937;SDS011;64615;32.062;34.834;2023-06-22T02:41:48;10.95;;;7.47;;
75937;SDS011;64615;32.062;34.834;2023-06-22T02:44:18;10.55;;;7.65;;
75937;SDS011;64615;32.062;34.834;2023-06-22T02:46:44;11.40;;;7.35;;
75937;SDS011;64615;32.062;34.834;2023-06-22T02:49:11;13.05;;;7.82;;
75937;SDS011;64615;32.062;34.834;2023-06-22T02:51:38;13.50;;;7.22;;
75937;SDS011;64615;32.062;34.834;2023-06-22T02:54:07;13.43;;;7.07;;
75937;SDS011;64615;32.062;34.834;2023-06-22T02:56:33;11.90;;;7.13;;
75937;SDS011;64615;32.062;34.834;2023-06-22T02:58:59;13.52;;;7.68;;
75937;SDS011;64615;32.062;34.834;2023-06-22T03:01:29;15.63;;;7.53;;
75937;SDS011;64615;32.062;34.834;2023-06-22T03:03:58;13.13;;;7.82;;
75937;SDS011;64615;32.062;34.834;2023-06-22T03:06:24;15.27;;;7.82;;
75937;SDS011;64615;32.062;34.834;2023-06-22T03:08:54;23.98;;;8.82;;
75937;SDS011;64615;32.062;34.834;2023-06-22T03:11:24;20.25;;;8.20;;
75937;SDS011;64615;32.062;34.834;2023-06-22T03:13:49;17.45;;;8.45;;
75937;SDS011;64615;32.062;34.834;2023-06-22T03:16:17;16.75;;;8.65;;
75937;SDS011;64615;32.062;34.834;2023-06-22T03:18:43;15.07;;;9.02;;
75937;SDS011;64615;32.062;34.834;2023-06-22T03:21:09;14.35;;;8.15;;
75937;SDS011;64615;32.062;34.834;2023-06-22T03:23:35;22.80;;;9.43;;
75937;SDS011;64615;32.062;34.834;2023-06-22T03:26:01;34.35;;;10.18;;
75937;SDS011;64615;32.062;34.834;2023-06-22T03:28:27;39.25;;;9.98;;
75937;SDS011;64615;32.062;34.834;2023-06-22T03:30:53;29.17;;;9.88;;
75937;SDS011;64615;32.062;34.834;2023-06-22T03:33:19;31.73;;;11.50;;
75937;SDS011;64615;32.062;34.834;2023-06-22T03:35:44;34.70;;;11.52;;
75937;SDS011;64615;32.062;34.834;2023-06-22T03:38:10;26.98;;;11.70;;
75937;SDS011;64615;32.062;34.834;2023-06-22T03:40:36;31.98;;;12.50;;
75937;SDS011;64615;32.062;34.834;2023-06-22T03:43:01;53.35;;;13.68;;
75937;SDS011;64615;32.062;34.834;2023-06-22T03:45:27;29.92;;;12.40;;
75937;SDS011;64615;32.062;34.834;2023-06-22T03:47:53;37.10;;;13.48;;
75937;SDS011;64615;32.062;34.834;2023-06-22T03:50:18;36.78;;;12.65;;
75937;SDS011;64615;32.062;34.834;2023-06-22T03:52:45;44.83;;;14.38;;
75937;SDS011;64615;32.062;34.834;2023-06-22T03:55:11;46.72;;;15.60;;
75937;SDS011;64615;32.062;34.834;2023-06-22T03:57:37;44.08;;;13.65;;
75937;SDS011;64615;32.062;34.834;2023-06-22T04:00:03;38.35;;;13.05;;
75937;SDS011;64615;32.062;34.834;2023-06-22T04:02:33;36.20;;;14.60;;
75937;SDS011;64615;32.062;34.834;2023-06-22T04:04:58;39.42;;;14.20;;
75937;SDS011;64615;32.062;34.834;2023-06-22T04:07:24;31.33;;;14.73;;
75937;SDS011;64615;32.062;34.834;2023-06-22T04:09:50;53.50;;;14.93;;
75937;SDS011;64615;32.062;34.834;2023-06-22T04:12:15;52.55;;;14.68;;
75937;SDS011;64615;32.062;34.834;2023-06-22T04:14:41;49.78;;;14.98;;
75937;SDS011;64615;32.062;34.834;2023-06-22T04:17:07;52.97;;;16.27;;
75937;SDS011;64615;32.062;34.834;2023-06-22T04:19:32;50.05;;;15.55;;
75937;SDS011;64615;32.062;34.834;2023-06-22T04:21:58;37.97;;;13.77;;
75937;SDS011;64615;32.062;34.834;2023-06-22T04:24:24;50.53;;;16.80;;
75937;SDS011;64615;32.062;34.834;2023-06-22T04:26:49;44.58;;;16.92;;
75937;SDS011;64615;32.062;34.834;2023-06-22T04:29:18;37.30;;;15.18;;
75937;SDS011;64615;32.062;34.834;2023-06-22T04:31:44;36.95;;;15.77;;
75937;SDS011;64615;32.062;34.834;2023-06-22T04:34:09;36.85;;;16.20;;
75937;SDS011;64615;32.062;34.834;2023-06-22T04:36:36;34.58;;;15.10;;
75937;SDS011;64615;32.062;34.834;2023-06-22T04:39:12;38.40;;;15.98;;
75937;SDS011;64615;32.062;34.834;2023-06-22T04:41:40;33.88;;;16.95;;
75937;SDS011;64615;32.062;34.834;2023-06-22T04:44:12;33.60;;;16.55;;
75937;SDS011;64615;32.062;34.834;2023-06-22T04:46:38;37.85;;;16.50;;
75937;SDS011;64615;32.062;34.834;2023-06-22T04:49:05;33.00;;;16.83;;
75937;SDS011;64615;32.062;34.834;2023-06-22T04:51:40;32.05;;;17.15;;
75937;SDS011;64615;32.062;34.834;2023-06-22T04:54:07;30.05;;;16.05;;
75937;SDS011;64615;32.062;34.834;2023-06-22T04:56:34;29.88;;;16.05;;
75937;SDS011;64615;32.062;34.834;2023-06-22T04:59:00;36.55;;;16.55;;
75937;SDS011;64615;32.062;34.834;2023-06-22T05:01:26;34.42;;;16.85;;
75937;SDS011;64615;32.062;34.834;2023-06-22T05:03:52;35.15;;;15.93;;
75937;SDS011;64615;32.062;34.834;2023-06-22T05:06:22;34.92;;;15.05;;
75937;SDS011;64615;32.062;34.834;2023-06-22T05:08:51;34.72;;;15.77;;
75937;SDS011;64615;32.062;34.834;2023-06-22T05:11:24;26.98;;;15.07;;
75937;SDS011;64615;32.062;34.834;2023-06-22T05:13:52;31.83;;;14.75;;
75937;SDS011;64615;32.062;34.834;2023-06-22T05:16:18;31.10;;;15.30;;
75937;SDS011;64615;32.062;34.834;2023-06-22T05:18:54;33.47;;;14.20;;
75937;SDS011;64615;32.062;34.834;2023-06-22T05:21:24;40.00;;;15.20;;
75937;SDS011;64615;32.062;34.834;2023-06-22T05:23:50;39.20;;;14.82;;
75937;SDS011;64615;32.062;34.834;2023-06-22T05:26:16;30.33;;;14.23;;
75937;SDS011;64615;32.062;34.834;2023-06-22T05:28:43;31.38;;;14.27;;
75937;SDS011;64615;32.062;34.834;2023-06-22T05:31:11;25.25;;;13.52;;
75937;SDS011;64615;32.062;34.834;2023-06-22T05:33:38;27.58;;;13.52;;
75937;SDS011;64615;32.062;34.834;2023-06-22T05:36:05;31.15;;;13.48;;
75937;SDS011;64615;32.062;34.834;2023-06-22T05:38:30;32.15;;;12.77;;
75937;SDS011;64615;32.062;34.834;2023-06-22T05:40:56;35.65;;;13.13;;
75937;SDS011;64615;32.062;34.834;2023-06-22T05:43:22;27.73;;;12.63;;
75937;SDS011;64615;32.062;34.834;2023-06-22T05:45:47;24.02;;;12.18;;
75937;SDS011;64615;32.062;34.834;2023-06-22T05:48:13;27.00;;;12.07;;
75937;SDS011;64615;32.062;34.834;2023-06-22T05:50:38;27.63;;;12.75;;
75937;SDS011;64615;32.062;34.834;2023-06-22T05:53:04;26.35;;;11.30;;
75937;SDS011;64615;32.062;34.834;2023-06-22T05:55:31;22.63;;;11.60;;
75937;SDS011;64615;32.062;34.834;2023-06-22T05:57:57;23.75;;;11.30;;
75937;SDS011;64615;32.062;34.834;2023-06-22T06:00:23;22.30;;;11.02;;
75937;SDS011;64615;32.062;34.834;2023-06-22T06:02:49;23.58;;;11.02;;
75937;SDS011;64615;32.062;34.834;2023-06-22T06:05:15;25.98;;;10.85;;
75937;SDS011;64615;32.062;34.834;2023-06-22T06:07:41;19.30;;;11.88;;
75937;SDS011;64615;32.062;34.834;2023-06-22T06:10:08;22.60;;;11.20;;
75937;SDS011;64615;32.062;34.834;2023-06-22T06:12:34;24.75;;;11.27;;
75937;SDS011;64615;32.062;34.834;2023-06-22T06:15:00;21.13;;;10.00;;
75937;SDS011;64615;32.062;34.834;2023-06-22T06:17:26;24.38;;;10.98;;
75937;SDS011;64615;32.062;34.834;2023-06-22T06:19:51;19.67;;;10.65;;
75937;SDS011;64615;32.062;34.834;2023-06-22T06:22:17;20.83;;;10.60;;
75937;SDS011;64615;32.062;34.834;2023-06-22T06:24:44;18.83;;;10.23;;
75937;SDS011;64615;32.062;34.834;2023-06-22T06:27:10;27.65;;;10.55;;
75937;SDS011;64615;32.062;34.834;2023-06-22T06:29:36;18.67;;;10.30;;
75937;SDS011;64615;32.062;34.834;2023-06-22T06:32:02;24.92;;;9.93;;
75937;SDS011;64615;32.062;34.834;2023-06-22T06:34:28;24.55;;;10.25;;
75937;SDS011;64615;32.062;34.834;2023-06-22T06:36:54;18.98;;;9.52;;
75937;SDS011;64615;32.062;34.834;2023-06-22T06:39:19;23.63;;;10.05;;
75937;SDS011;64615;32.062;34.834;2023-06-22T06:41:45;21.25;;;9.75;;
75937;SDS011;64615;32.062;34.834;2023-06-22T06:44:11;19.42;;;9.27;;
75937;SDS011;64615;32.062;34.834;2023-06-22T06:46:37;18.67;;;9.50;;
75937;SDS011;64615;32.062;34.834;2023-06-22T06:49:03;18.20;;;9.13;;
75937;SDS011;64615;32.062;34.834;2023-06-22T06:51:28;19.27;;;8.88;;
75937;SDS011;64615;32.062;34.834;2023-06-22T06:53:54;20.90;;;8.98;;
75937;SDS011;64615;32.062;34.834;2023-06-22T06:56:20;17.63;;;8.63;;
75937;SDS011;64615;32.062;34.834;2023-06-22T06:58:46;16.00;;;8.55;;
75937;SDS011;64615;32.062;34.834;2023-06-22T07:01:12;14.77;;;8.38;;
75937;SDS011;64615;32.062;34.834;2023-06-22T07:03:38;18.63;;;9.30;;
75937;SDS011;64615;32.062;34.834;2023-06-22T07:06:03;13.02;;;7.78;;
75937;SDS011;64615;32.062;34.834;2023-06-22T07:08:29;14.50;;;8.20;;
75937;SDS011;64615;32.062;34.834;2023-06-22T07:10:55;18.98;;;8.23;;
75937;SDS011;64615;32.062;34.834;2023-06-22T07:13:21;19.67;;;8.60;;
75937;SDS011;64615;32.062;34.834;2023-06-22T07:15:46;12.68;;;7.97;;
75937;SDS011;64615;32.062;34.834;2023-06-22T07:18:12;15.70;;;8.15;;
75937;SDS011;64615;32.062;34.834;2023-06-22T07:20:38;16.40;;;7.90;;
75937;SDS011;64615;32.062;34.834;2023-06-22T07:23:04;14.98;;;7.78;;
75937;SDS011;64615;32.062;34.834;2023-06-22T07:25:30;13.07;;;7.10;;
75937;SDS011;64615;32.062;34.834;2023-06-22T07:28:06;13.98;;;6.55;;
75937;SDS011;64615;32.062;34.834;2023-06-22T07:30:33;12.55;;;7.35;;
75937;SDS011;64615;32.062;34.834;2023-06-22T07:32:59;11.00;;;6.63;;
75937;SDS011;64615;32.062;34.834;2023-06-22T07:35:31;12.00;;;6.65;;
75937;SDS011;64615;32.062;34.834;2023-06-22T07:37:57;12.07;;;6.90;;
75937;SDS011;64615;32.062;34.834;2023-06-22T07:40:23;10.88;;;6.28;;
75937;SDS011;64615;32.062;34.834;2023-06-22T07:42:49;12.32;;;7.20;;
75937;SDS011;64615;32.062;34.834;2023-06-22T07:45:16;10.55;;;6.47;;
75937;SDS011;64615;32.062;34.834;2023-06-22T07:47:42;14.02;;;6.68;;
75937;SDS011;64615;32.062;34.834;2023-06-22T07:50:08;11.48;;;7.03;;
75937;SDS011;64615;32.062;34.834;2023-06-22T07:52:34;13.05;;;6.40;;
75937;SDS011;64615;32.062;34.834;2023-06-22T07:55:00;11.00;;;6.85;;
75937;SDS011;64615;32.062;34.834;2023-06-22T07:57:27;12.45;;;6.47;;
75937;SDS011;64615;32.062;34.834;2023-06-22T07:59:59;13.38;;;6.80;;
75937;SDS011;64615;32.062;34.834;2023-06-22T08:02:25;11.45;;;6.15;;
75937;SDS011;64615;32.062;34.834;2023-06-22T08:04:51;12.85;;;7.18;;
75937;SDS011;64615;32.062;34.834;2023-06-22T08:07:17;13.25;;;6.32;;
75937;SDS011;64615;32.062;34.834;2023-06-22T08:09:48;11.60;;;6.82;;
75937;SDS011;64615;32.062;34.834;2023-06-22T08:12:14;12.73;;;6.35;;
75937;SDS011;64615;32.062;34.834;2023-06-22T08:14:41;10.13;;;6.40;;
75937;SDS011;64615;32.062;34.834;2023-06-22T08:17:11;13.93;;;6.80;;
75937;SDS011;64615;32.062;34.834;2023-06-22T08:19:37;10.07;;;6.00;;
75937;SDS011;64615;32.062;34.834;2023-06-22T08:22:03;12.82;;;6.05;;
75937;SDS011;64615;32.062;34.834;2023-06-22T08:24:28;12.52;;;6.50;;
75937;SDS011;64615;32.062;34.834;2023-06-22T08:26:55;14.07;;;6.88;;
75937;SDS011;64615;32.062;34.834;2023-06-22T08:29:21;12.73;;;6.70;;
75937;SDS011;64615;32.062;34.834;2023-06-22T08:31:47;10.60;;;6.53;;
75937;SDS011;64615;32.062;34.834;2023-06-22T08:34:12;11.45;;;6.93;;
75937;SDS011;64615;32.062;34.834;2023-06-22T08:36:38;12.07;;;7.05;;
75937;SDS011;64615;32.062;34.834;2023-06-22T08:39:06;10.70;;;6.60;;
75937;SDS011;64615;32.062;34.834;2023-06-22T08:41:33;10.27;;;6.22;;
75937;SDS011;64615;32.062;34.834;2023-06-22T08:43:59;12.45;;;6.53;;
75937;SDS011;64615;32.062;34.834;2023-06-22T08:46:24;10.55;;;6.25;;
75937;SDS011;64615;32.062;34.834;2023-06-22T08:48:55;11.65;;;6.32;;
75937;SDS011;64615;32.062;34.834;2023-06-22T08:51:24;9.85;;;5.88;;
75937;SDS011;64615;32.062;34.834;2023-06-22T08:53:50;10.32;;;6.68;;
75937;SDS011;64615;32.062;34.834;2023-06-22T08:56:15;11.85;;;6.28;;
75937;SDS011;64615;32.062;34.834;2023-06-22T08:58:41;11.15;;;6.57;;
75937;SDS011;64615;32.062;34.834;2023-06-22T09:01:07;11.23;;;6.07;;
75937;SDS011;64615;32.062;34.834;2023-06-22T09:03:32;10.43;;;6.15;;
75937;SDS011;64615;32.062;34.834;2023-06-22T09:06:01;11.50;;;6.15;;
75937;SDS011;64615;32.062;34.834;2023-06-22T09:08:27;10.50;;;5.63;;
75937;SDS011;64615;32.062;34.834;2023-06-22T09:10:52;14.15;;;5.70;;
75937;SDS011;64615;32.062;34.834;2023-06-22T09:13:18;8.50;;;5.13;;
75937;SDS011;64615;32.062;34.834;2023-06-22T09:15:44;8.80;;;5.50;;
75937;SDS011;64615;32.062;34.834;2023-06-22T09:18:10;9.02;;;5.28;;
75937;SDS011;64615;32.062;34.834;2023-06-22T09:20:36;9.75;;;5.05;;
75937;SDS011;64615;32.062;34.834;2023-06-22T09:23:02;10.88;;;5.70;;
75937;SDS011;64615;32.062;34.834;2023-06-22T09:25:27;8.38;;;4.80;;
75937;SDS011;64615;32.062;34.834;2023-06-22T09:27:53;8.65;;;4.78;;
75937;SDS011;64615;32.062;34.834;2023-06-22T09:30:19;9.68;;;5.00;;
75937;SDS011;64615;32.062;34.834;2023-06-22T09:32:44;8.52;;;4.60;;
75937;SDS011;64615;32.062;34.834;2023-06-22T09:35:10;8.82;;;4.35;;
75937;SDS011;64615;32.062;34.834;2023-06-22T09:37:38;6.72;;;4.32;;
75937;SDS011;64615;32.062;34.834;2023-06-22T09:40:03;7.63;;;4.85;;
75937;SDS011;64615;32.062;34.834;2023-06-22T09:42:34;9.57;;;4.63;;
75937;SDS011;64615;32.062;34.834;2023-06-22T09:44:59;9.05;;;5.03;;
75937;SDS011;64615;32.062;34.834;2023-06-22T09:47:26;6.82;;;4.40;;
75937;SDS011;64615;32.062;34.834;2023-06-22T09:49:52;7.30;;;4.35;;
75937;SDS011;64615;32.062;34.834;2023-06-22T09:52:20;7.10;;;3.92;;
75937;SDS011;64615;32.062;34.834;2023-06-22T09:54:46;7.43;;;4.32;;
75937;SDS011;64615;32.062;34.834;2023-06-22T09:57:12;6.68;;;4.13;;
75937;SDS011;64615;32.062;34.834;2023-06-22T09:59:37;6.35;;;4.15;;
75937;SDS011;64615;32.062;34.834;2023-06-22T10:02:05;5.43;;;3.83;;
75937;SDS011;64615;32.062;34.834;2023-06-22T10:04:32;6.10;;;4.13;;
75937;SDS011;64615;32.062;34.834;2023-06-22T10:06:58;6.93;;;3.55;;
75937;SDS011;64615;32.062;34.834;2023-06-22T10:09:24;5.72;;;3.70;;
75937;SDS011;64615;32.062;34.834;2023-06-22T10:11:49;5.78;;;3.75;;
75937;SDS011;64615;32.062;34.834;2023-06-22T10:14:15;6.40;;;4.15;;
75937;SDS011;64615;32.062;34.834;2023-06-22T10:16:41;6.00;;;4.00;;
75937;SDS011;64615;32.062;34.834;2023-06-22T10:19:07;5.22;;;3.40;;
75937;SDS011;64615;32.062;34.834;2023-06-22T10:21:32;4.93;;;3.33;;
75937;SDS011;64615;32.062;34.834;2023-06-22T10:23:59;5.78;;;3.65;;
75937;SDS011;64615;32.062;34.834;2023-06-22T10:26:31;6.10;;;3.90;;
75937;SDS011;64615;32.062;34.834;2023-06-22T10:29:01;5.32;;;3.47;;
75937;SDS011;64615;32.062;34.834;2023-06-22T10:31:27;6.03;;;3.75;;
75937;SDS011;64615;32.062;34.834;2023-06-22T10:33:53;4.75;;;3.15;;
75937;SDS011;64615;32.062;34.834;2023-06-22T10:36:21;5.57;;;3.13;;
75937;SDS011;64615;32.062;34.834;2023-06-22T10:38:47;4.90;;;3.13;;
75937;SDS011;64615;32.062;34.834;2023-06-22T10:41:14;4.80;;;3.03;;
75937;SDS011;64615;32.062;34.834;2023-06-22T10:43:39;4.72;;;3.13;;
75937;SDS011;64615;32.062;34.834;2023-06-22T10:46:06;5.85;;;3.35;;
75937;SDS011;64615;32.062;34.834;2023-06-22T10:48:32;6.55;;;3.47;;
75937;SDS011;64615;32.062;34.834;2023-06-22T10:50:57;4.70;;;2.88;;
75937;SDS011;64615;32.062;34.834;2023-06-22T10:53:23;4.90;;;3.15;;
75937;SDS011;64615;32.062;34.834;2023-06-22T10:55:49;5.47;;;3.17;;
75937;SDS011;64615;32.062;34.834;2023-06-22T10:58:15;4.60;;;2.53;;
75937;SDS011;64615;32.062;34.834;2023-06-22T11:00:43;5.30;;;3.40;;
75937;SDS011;64615;32.062;34.834;2023-06-22T11:03:08;5.10;;;3.33;;
75937;SDS011;64615;32.062;34.834;2023-06-22T11:05:34;4.88;;;3.28;;
75937;SDS011;64615;32.062;34.834;2023-06-22T11:08:00;5.38;;;3.22;;
75937;SDS011;64615;32.062;34.834;2023-06-22T11:10:25;6.43;;;3.22;;
75937;SDS011;64615;32.062;34.834;2023-06-22T11:12:52;4.97;;;3.25;;
75937;SDS011;64615;32.062;34.834;2023-06-22T11:15:18;5.72;;;3.40;;
75937;SDS011;64615;32.062;34.834;2023-06-22T11:17:44;7.75;;;3.25;;
75937;SDS011;64615;32.062;34.834;2023-06-22T11:20:10;5.57;;;3.30;;
75937;SDS011;64615;32.062;34.834;2023-06-22T11:22:37;5.00;;;3.03;;
75937;SDS011;64615;32.062;34.834;2023-06-22T11:25:04;5.57;;;3.05;;
75937;SDS011;64615;32.062;34.834;2023-06-22T11:27:30;7.10;;;3.00;;
75937;SDS011;64615;32.062;34.834;2023-06-22T11:29:56;4.47;;;2.88;;
75937;SDS011;64615;32.062;34.834;2023-06-22T11:32:22;5.43;;;3.17;;
75937;SDS011;64615;32.062;34.834;2023-06-22T11:34:48;5.22;;;2.92;;
75937;SDS011;64615;32.062;34.834;2023-06-22T11:37:13;6.50;;;3.38;;
75937;SDS011;64615;32.062;34.834;2023-06-22T11:39:40;5.63;;;3.17;;
75937;SDS011;64615;32.062;34.834;2023-06-22T11:42:06;5.03;;;3.20;;
75937;SDS011;64615;32.062;34.834;2023-06-22T11:44:33;6.25;;;3.50;;
75937;SDS011;64615;32.062;34.834;2023-06-22T11:46:58;7.13;;;3.70;;
75937;SDS011;64615;32.062;34.834;2023-06-22T11:49:26;5.82;;;3.13;;
75937;SDS011;64615;32.062;34.834;2023-06-22T11:51:52;7.47;;;3.78;;
75937;SDS011;64615;32.062;34.834;2023-06-22T11:54:18;7.30;;;3.35;;
75937;SDS011;64615;32.062;34.834;2023-06-22T11:56:43;6.97;;;3.28;;
75937;SDS011;64615;32.062;34.834;2023-06-22T11:59:09;5.88;;;3.50;;
75937;SDS011;64615;32.062;34.834;2023-06-22T12:01:34;5.85;;;3.13;;
75937;SDS011;64615;32.062;34.834;2023-06-22T12:04:00;5.35;;;3.33;;
75937;SDS011;64615;32.062;34.834;2023-06-22T12:06:26;9.10;;;3.42;;
75937;SDS011;64615;32.062;34.834;2023-06-22T12:08:51;9.05;;;3.85;;
75937;SDS011;64615;32.062;34.834;2023-06-22T12:11:17;6.15;;;3.72;;
75937;SDS011;64615;32.062;34.834;2023-06-22T12:13:43;9.32;;;3.50;;
75937;SDS011;64615;32.062;34.834;2023-06-22T12:16:08;7.78;;;3.83;;
75937;SDS011;64615;32.062;34.834;2023-06-22T12:18:34;7.13;;;3.75;;
75937;SDS011;64615;32.062;34.834;2023-06-22T12:21:00;7.72;;;3.85;;
75937;SDS011;64615;32.062;34.834;2023-06-22T12:23:25;5.55;;;3.47;;
75937;SDS011;64615;32.062;34.834;2023-06-22T12:25:51;6.40;;;3.67;;
75937;SDS011;64615;32.062;34.834;2023-06-22T12:28:17;7.47;;;4.07;;
75937;SDS011;64615;32.062;34.834;2023-06-22T12:30:42;6.07;;;3.53;;
75937;SDS011;64615;32.062;34.834;2023-06-22T12:33:08;6.68;;;3.35;;
75937;SDS011;64615;32.062;34.834;2023-06-22T12:35:34;8.55;;;4.32;;
75937;SDS011;64615;32.062;34.834;2023-06-22T12:38:00;9.88;;;4.15;;
75937;SDS011;64615;32.062;34.834;2023-06-22T12:40:25;8.35;;;4.40;;
75937;SDS011;64615;32.062;34.834;2023-06-22T12:42:51;12.27;;;4.57;;
75937;SDS011;64615;32.062;34.834;2023-06-22T12:45:16;10.13;;;4.78;;
75937;SDS011;64615;32.062;34.834;2023-06-22T12:47:42;8.57;;;4.93;;
75937;SDS011;64615;32.062;34.834;2023-06-22T12:50:08;11.00;;;5.35;;
75937;SDS011;64615;32.062;34.834;2023-06-22T12:52:36;9.90;;;5.50;;
75937;SDS011;64615;32.062;34.834;2023-06-22T12:55:05;11.98;;;6.30;;
75937;SDS011;64615;32.062;34.834;2023-06-22T12:57:31;15.18;;;6.88;;
75937;SDS011;64615;32.062;34.834;2023-06-22T12:59:56;19.83;;;6.70;;
75937;SDS011;64615;32.062;34.834;2023-06-22T13:02:23;15.65;;;6.60;;
75937;SDS011;64615;32.062;34.834;2023-06-22T13:04:49;15.60;;;6.30;;
75937;SDS011;64615;32.062;34.834;2023-06-22T13:07:14;10.57;;;6.20;;
75937;SDS011;64615;32.062;34.834;2023-06-22T13:09:40;17.95;;;6.60;;
75937;SDS011;64615;32.062;34.834;2023-06-22T13:12:06;13.27;;;6.50;;
75937;SDS011;64615;32.062;34.834;2023-06-22T13:14:32;15.65;;;6.78;;
75937;SDS011;64615;32.062;34.834;2023-06-22T13:16:57;14.10;;;6.63;;
75937;SDS011;64615;32.062;34.834;2023-06-22T13:19:23;12.48;;;6.50;;
75937;SDS011;64615;32.062;34.834;2023-06-22T13:21:48;12.85;;;6.78;;
75937;SDS011;64615;32.062;34.834;2023-06-22T13:24:14;13.25;;;6.90;;
75937;SDS011;64615;32.062;34.834;2023-06-22T13:26:41;15.00;;;7.25;;
75937;SDS011;64615;32.062;34.834;2023-06-22T13:29:07;15.27;;;6.68;;
75937;SDS011;64615;32.062;34.834;2023-06-22T13:31:32;15.30;;;6.93;;
75937;SDS011;64615;32.062;34.834;2023-06-22T13:33:58;14.18;;;7.25;;
75937;SDS011;64615;32.062;34.834;2023-06-22T13:36:24;13.38;;;6.40;;
75937;SDS011;64615;32.062;34.834;2023-06-22T13:38:49;16.05;;;6.95;;
75937;SDS011;64615;32.062;34.834;2023-06-22T13:41:15;17.25;;;7.47;;
75937;SDS011;64615;32.062;34.834;2023-06-22T13:43:41;13.68;;;6.65;;
75937;SDS011;64615;32.062;34.834;2023-06-22T13:46:06;13.70;;;7.32;;
75937;SDS011;64615;32.062;34.834;2023-06-22T13:48:32;12.35;;;6.63;;
75937;SDS011;64615;32.062;34.834;2023-06-22T13:50:58;21.48;;;6.60;;
75937;SDS011;64615;32.062;34.834;2023-06-22T13:53:24;11.40;;;6.53;;
75937;SDS011;64615;32.062;34.834;2023-06-22T13:55:51;10.57;;;6.18;;
75937;SDS011;64615;32.062;34.834;2023-06-22T13:58:16;15.30;;;7.03;;
75937;SDS011;64615;32.062;34.834;2023-06-22T14:00:44;10.70;;;6.22;;
75937;SDS011;64615;32.062;34.834;2023-06-22T14:03:10;10.52;;;6.78;;
75937;SDS011;64615;32.062;34.834;2023-06-22T14:05:36;11.63;;;6.28;;
75937;SDS011;64615;32.062;34.834;2023-06-22T14:08:02;11.20;;;6.50;;
75937;SDS011;64615;32.062;34.834;2023-06-22T14:10:27;17.58;;;6.82;;
75937;SDS011;64615;32.062;34.834;2023-06-22T14:12:53;17.67;;;6.75;;
75937;SDS011;64615;32.062;34.834;2023-06-22T14:15:18;14.80;;;7.03;;
75937;SDS011;64615;32.062;34.834;2023-06-22T14:17:44;14.13;;;7.03;;
75937;SDS011;64615;32.062;34.834;2023-06-22T14:20:10;22.70;;;6.88;;
75937;SDS011;64615;32.062;34.834;2023-06-22T14:22:36;16.63;;;6.57;;
75937;SDS011;64615;32.062;34.834;2023-06-22T14:25:01;12.98;;;6.47;;